createdAt,value
2022-10-14T00:02:18.108Z,95047.38
2022-10-14T00:04:44.598Z,95032.34
2022-10-14T00:07:11.118Z,95035.78
2022-10-14T00:09:39.782Z,95041.53
2022-10-14T00:12:06.283Z,95045.94
2022-10-14T00:14:32.719Z,95048.13
2022-10-14T00:16:59.191Z,95043.69
2022-10-14T00:19:25.628Z,95043.38
2022-10-14T00:21:52.024Z,95038.63
2022-10-14T00:24:18.876Z,95031.94
2022-10-14T00:26:46.470Z,95035.63
2022-10-14T00:29:15.840Z,95036.44
2022-10-14T00:31:42.323Z,95037.31
2022-10-14T00:34:12.780Z,95039.56
2022-10-14T00:36:41.401Z,95040.03
2022-10-14T00:39:08.037Z,95042.16
2022-10-14T00:41:35.598Z,95029.25
2022-10-14T00:44:05.307Z,95045.19
2022-10-14T00:46:38.072Z,95032.56
2022-10-14T00:49:11.859Z,95042.47
2022-10-14T00:51:40.869Z,95042.81
2022-10-14T00:54:09.572Z,95033.84
2022-10-14T00:56:36.735Z,95036.13
2022-10-14T00:59:04.908Z,95046.28
2022-10-14T01:01:31.700Z,95039.59
2022-10-14T01:03:58.154Z,95048.13
2022-10-14T01:06:45.618Z,95036.50
2022-10-14T01:09:41.344Z,95054.72
2022-10-14T01:12:34.832Z,95056.81
2022-10-14T01:15:04.803Z,95053.59
2022-10-14T01:18:00.433Z,95054.22
2022-10-14T01:21:03.856Z,95055.41
2022-10-14T01:23:49.084Z,95056.50
2022-10-14T01:26:40.202Z,95064.94
2022-10-14T01:29:22.253Z,95053.47
2022-10-14T01:31:55.268Z,95043.34
2022-10-14T01:34:28.702Z,95054.38
2022-10-14T01:37:01.590Z,95053.34
2022-10-14T01:39:33.672Z,95052.53
2022-10-14T01:42:14.239Z,95067.50
2022-10-14T01:44:44.086Z,95066.94
2022-10-14T01:47:13.923Z,95069.84
2022-10-14T01:49:46.021Z,95078.38
2022-10-14T01:52:22.755Z,95073.78
2022-10-14T01:54:52.631Z,95088.44
2022-10-14T01:57:25.149Z,95099.63
2022-10-14T01:59:53.919Z,95099.44
2022-10-14T02:02:21.093Z,95097.97
2022-10-14T02:04:47.675Z,95086.72
2022-10-14T02:07:33.898Z,95095.03
2022-10-14T02:10:19.620Z,95091.34
2022-10-14T02:12:55.836Z,95096.69
2022-10-14T02:15:28.652Z,95097.44
2022-10-14T02:18:03.417Z,95094.66
2022-10-14T02:20:56.051Z,95096.22
2022-10-14T02:23:29.991Z,95093.09
2022-10-14T02:25:56.960Z,95092.28
2022-10-14T02:28:27.313Z,95093.00
2022-10-14T02:30:58.908Z,95095.03
2022-10-14T02:33:33.148Z,95101.94
2022-10-14T02:36:03.625Z,95098.25
2022-10-14T02:38:31.605Z,95088.09
2022-10-14T02:41:02.985Z,95091.72
2022-10-14T02:43:29.552Z,95080.63
2022-10-14T02:46:02.139Z,95085.22
2022-10-14T02:48:28.880Z,95079.09
2022-10-14T02:50:55.298Z,95080.47
2022-10-14T02:53:21.776Z,95078.28
2022-10-14T02:55:48.666Z,95083.84
2022-10-14T02:58:15.151Z,95086.59
2022-10-14T03:00:41.595Z,95088.44
2022-10-14T03:03:08.853Z,95087.63
2022-10-14T03:05:35.253Z,95088.19
2022-10-14T03:08:01.718Z,95082.31
2022-10-14T03:10:28.092Z,95074.03
2022-10-14T03:12:54.555Z,95080.38
2022-10-14T03:15:21.032Z,95077.81
2022-10-14T03:17:47.450Z,95083.94
2022-10-14T03:20:13.861Z,95078.84
2022-10-14T03:22:40.261Z,95073.78
2022-10-14T03:25:07.451Z,95072.75
2022-10-14T03:27:33.991Z,95070.09
2022-10-14T03:30:00.395Z,95074.34
2022-10-14T03:32:26.829Z,95073.63
2022-10-14T03:34:53.234Z,95061.88
2022-10-14T03:37:19.691Z,95064.53
2022-10-14T03:39:46.152Z,95066.06
2022-10-14T03:42:12.766Z,95061.78
2022-10-14T03:44:39.228Z,95063.25
2022-10-14T03:47:05.813Z,95056.00
2022-10-14T03:49:32.253Z,95063.72
2022-10-14T03:51:58.682Z,95060.50
2022-10-14T03:54:25.130Z,95062.78
2022-10-14T03:56:51.499Z,95049.97
2022-10-14T03:59:18.077Z,95058.75
2022-10-14T04:01:44.651Z,95044.66
2022-10-14T04:04:11.284Z,95043.84
2022-10-14T04:06:37.792Z,95041.19
2022-10-14T04:09:05.321Z,95040.63
2022-10-14T04:11:31.758Z,95040.88
2022-10-14T04:13:59.040Z,95035.88
2022-10-14T04:16:25.555Z,95038.22
2022-10-14T04:18:51.959Z,95019.06
2022-10-14T04:21:18.365Z,95031.38
2022-10-14T04:23:44.849Z,95030.00
2022-10-14T04:26:11.289Z,95031.38
2022-10-14T04:28:38.001Z,95020.91
2022-10-14T04:31:05.718Z,95024.22
2022-10-14T04:33:32.258Z,95018.91
2022-10-14T04:36:00.208Z,95024.13
2022-10-14T04:38:27.493Z,95014.06
2022-10-14T04:40:54.557Z,95006.91
2022-10-14T04:43:21.082Z,95014.06
2022-10-14T04:45:48.040Z,95003.69
2022-10-14T04:48:15.084Z,95002.16
2022-10-14T04:50:41.768Z,94996.84
2022-10-14T04:53:13.101Z,94996.84
2022-10-14T04:55:40.066Z,94986.88
2022-10-14T04:58:06.586Z,94979.22
2022-10-14T05:00:33.132Z,94974.72
2022-10-14T05:02:59.580Z,94977.44
2022-10-14T05:05:26.064Z,94969.66
2022-10-14T05:07:52.526Z,94974.72
2022-10-14T05:10:19.158Z,94969.41
2022-10-14T05:12:45.665Z,94959.25
2022-10-14T05:15:12.678Z,94963.69
2022-10-14T05:17:39.512Z,94965.63
2022-10-14T05:20:07.014Z,94963.28
2022-10-14T05:22:34.079Z,94956.13
2022-10-14T05:25:00.479Z,94956.19
2022-10-14T05:27:26.985Z,94947.91
2022-10-14T05:29:53.444Z,94937.53
2022-10-14T05:32:20.222Z,94953.19
2022-10-14T05:34:46.892Z,94952.75
2022-10-14T05:37:13.361Z,94949.94
2022-10-14T05:39:39.794Z,94943.25
2022-10-14T05:42:06.333Z,94949.94
2022-10-14T05:44:32.932Z,94944.84
2022-10-14T05:46:59.392Z,94948.63
2022-10-14T05:49:25.763Z,94935.75
2022-10-14T05:51:52.551Z,94941.63
2022-10-14T05:54:18.992Z,94940.84
2022-10-14T05:56:45.449Z,94937.13
2022-10-14T05:59:12.229Z,94935.59
2022-10-14T06:01:40.353Z,94933.50
2022-10-14T06:04:08.012Z,94929.16
2022-10-14T06:06:34.462Z,94935.53
2022-10-14T06:09:00.876Z,94940.13
2022-10-14T06:11:27.337Z,94946.94
2022-10-14T06:13:53.777Z,94937.38
2022-10-14T06:16:20.481Z,94942.44
2022-10-14T06:18:49.927Z,94941.97
2022-10-14T06:21:19.935Z,94934.00
2022-10-14T06:23:46.396Z,94935.03
2022-10-14T06:26:12.790Z,94942.19
2022-10-14T06:28:39.506Z,94932.06
2022-10-14T06:31:06.558Z,94927.56
2022-10-14T06:33:33.489Z,94926.19
2022-10-14T06:36:02.831Z,94933.69
2022-10-14T06:38:29.349Z,94940.34
2022-10-14T06:40:55.779Z,94937.22
2022-10-14T06:43:22.509Z,94941.47
2022-10-14T06:45:49.352Z,94932.22
2022-10-14T06:48:15.911Z,94940.91
2022-10-14T06:50:44.542Z,94942.19
2022-10-14T06:53:10.930Z,94930.28
2022-10-14T06:55:37.337Z,94930.22
2022-10-14T06:58:03.870Z,94922.66
2022-10-14T07:00:30.432Z,94921.81
2022-10-14T07:02:59.353Z,94928.44
2022-10-14T07:05:26.595Z,94910.72
2022-10-14T07:07:53.068Z,94918.63
2022-10-14T07:10:19.498Z,94917.06
2022-10-14T07:12:45.944Z,94920.22
2022-10-14T07:15:12.356Z,94918.94
2022-10-14T07:17:39.179Z,94911.59
2022-10-14T07:20:06.157Z,94911.69
2022-10-14T07:22:37.654Z,94910.97
2022-10-14T07:25:05.586Z,94895.19
2022-10-14T07:27:32.165Z,94906.78
2022-10-14T07:29:58.589Z,94898.91
2022-10-14T07:32:25.005Z,94905.41
2022-10-14T07:34:51.858Z,94895.28
2022-10-14T07:37:18.611Z,94897.22
2022-10-14T07:39:45.084Z,94904.19
2022-10-14T07:42:11.614Z,94894.06
2022-10-14T07:44:39.791Z,94908.72
2022-10-14T07:47:06.949Z,94906.00
2022-10-14T07:49:33.392Z,94913.44
2022-10-14T07:51:59.792Z,94908.63
2022-10-14T07:54:29.401Z,94909.09
2022-10-14T07:56:57.851Z,94907.97
2022-10-14T07:59:24.962Z,94907.41
2022-10-14T08:01:52.705Z,94891.84
2022-10-14T08:04:19.943Z,94905.63
2022-10-14T08:06:51.092Z,94896.88
2022-10-14T08:09:18.573Z,94903.72
2022-10-14T08:11:45.603Z,94886.84
2022-10-14T08:14:12.520Z,94890.91
2022-10-14T08:16:39.635Z,94888.78
2022-10-14T08:19:13.752Z,94887.41
2022-10-14T08:21:42.149Z,94880.09
2022-10-14T08:24:08.860Z,94887.53
2022-10-14T08:26:39.440Z,94875.78
2022-10-14T08:29:10.481Z,94878.69
2022-10-14T08:31:37.515Z,94879.94
2022-10-14T08:34:04.035Z,94873.16
2022-10-14T08:36:30.583Z,94882.41
2022-10-14T08:38:57.201Z,94878.59
2022-10-14T08:41:53.867Z,94885.81
2022-10-14T08:44:34.261Z,94879.50
2022-10-14T08:47:03.528Z,94877.09
2022-10-14T08:49:59.116Z,94885.69
2022-10-14T08:52:34.957Z,94888.44
2022-10-14T08:55:39.656Z,94876.25
2022-10-14T08:58:14.566Z,94880.84
2022-10-14T09:00:42.767Z,94876.78
2022-10-14T09:03:33.158Z,94873.91
2022-10-14T09:06:03.685Z,94860.75
2022-10-14T09:08:42.254Z,94865.97
2022-10-14T09:11:14.651Z,94869.00
2022-10-14T09:13:44.275Z,94861.06
2022-10-14T09:16:32.747Z,94858.09
2022-10-14T09:19:05.540Z,94844.72
2022-10-14T09:24:28.252Z,94855.72
2022-10-14T09:26:58.145Z,94865.38
2022-10-14T09:29:30.577Z,94856.97
2022-10-14T09:32:01.308Z,94849.34
2022-10-14T09:34:32.811Z,94846.84
2022-10-14T09:37:25.757Z,94857.22
2022-10-14T09:39:56.123Z,94851.91
2022-10-14T09:42:40.835Z,94848.81
2022-10-14T09:45:27.800Z,94845.78
2022-10-14T09:48:07.489Z,94840.56
2022-10-14T09:50:43.510Z,94834.44
2022-10-14T09:53:21.496Z,94852.50
2022-10-14T09:55:52.778Z,94836.34
2022-10-14T09:58:31.850Z,94839.88
2022-10-14T10:01:00.834Z,94839.41
2022-10-14T10:03:33.528Z,94842.81
2022-10-14T10:06:03.571Z,94839.47
2022-10-14T10:08:31.007Z,94843.41
2022-10-14T10:11:07.037Z,94844.94
2022-10-14T10:13:46.676Z,94849.59
2022-10-14T10:16:28.018Z,94837.75
2022-10-14T10:18:56.116Z,94831.63
2022-10-14T10:21:26.689Z,94836.78
2022-10-14T10:24:03.527Z,94829.84
2022-10-14T10:26:34.232Z,94830.00
2022-10-14T10:29:04.406Z,94831.19
2022-10-14T10:32:15.480Z,94841.00
2022-10-14T10:34:56.649Z,94828.66
2022-10-14T10:37:29.988Z,94826.78
2022-10-14T10:40:41.196Z,94822.75
2022-10-14T10:43:31.394Z,94822.50
2022-10-14T10:46:23.133Z,94817.91
2022-10-14T10:48:55.225Z,94819.13
2022-10-14T10:51:48.325Z,94811.81
2022-10-14T10:54:40.402Z,94815.69
2022-10-14T10:57:32.095Z,94811.06
2022-10-14T11:00:18.064Z,94805.88
2022-10-14T11:02:47.972Z,94803.16
2022-10-14T11:05:39.317Z,94807.44
2022-10-14T11:09:06.109Z,94805.38
2022-10-14T11:12:03.794Z,94799.94
2022-10-14T11:14:48.063Z,94801.75
2022-10-14T11:17:26.441Z,94790.41
2022-10-14T11:20:14.928Z,94788.09
2022-10-14T11:22:58.666Z,94788.81
2022-10-14T11:25:41.691Z,94781.03
2022-10-14T11:28:17.006Z,94788.00
2022-10-14T11:30:58.882Z,94772.25
2022-10-14T11:34:01.303Z,94789.91
2022-10-14T11:37:06.970Z,94779.66
2022-10-14T11:39:49.323Z,94786.41
2022-10-14T11:42:26.515Z,94770.38
2022-10-14T11:45:06.362Z,94774.75
2022-10-14T11:47:35.963Z,94775.94
2022-10-14T11:50:17.178Z,94776.50
2022-10-14T11:52:54.656Z,94768.63
2022-10-14T11:55:23.759Z,94776.50
2022-10-14T11:57:54.922Z,94769.00
2022-10-14T12:00:42.310Z,94766.94
2022-10-14T12:03:26.747Z,94775.19
2022-10-14T12:06:15.071Z,94770.44
2022-10-14T12:08:53.243Z,94765.06
2022-10-14T12:11:30.047Z,94763.75
2022-10-14T12:14:21.279Z,94757.59
2022-10-14T12:16:49.256Z,94759.78
2022-10-14T12:19:25.687Z,94754.28
2022-10-14T12:22:01.948Z,94748.63
2022-10-14T12:24:38.336Z,94753.72
2022-10-14T12:27:11.009Z,94750.03
2022-10-14T12:29:41.901Z,94751.69
2022-10-14T12:32:19.623Z,94747.66
2022-10-14T12:34:57.237Z,94747.91
2022-10-14T12:37:37.788Z,94733.47
2022-10-14T12:40:06.674Z,94739.31
2022-10-14T12:42:35.061Z,94742.91
2022-10-14T12:45:14.245Z,94740.75
2022-10-14T12:47:41.313Z,94740.69
2022-10-14T12:50:13.746Z,94740.47
2022-10-14T12:52:44.482Z,94746.09
2022-10-14T12:55:20.081Z,94745.59
2022-10-14T12:58:04.972Z,94745.31
2022-10-14T13:00:38.807Z,94753.06
2022-10-14T13:03:16.957Z,94743.19
2022-10-14T13:05:44.984Z,94749.06
2022-10-14T13:08:20.656Z,94750.41
2022-10-14T13:10:59.391Z,94739.47
2022-10-14T13:13:59.676Z,94744.53
2022-10-14T13:16:26.036Z,94750.16
2022-10-14T13:18:53.553Z,94738.13
2022-10-14T13:21:40.216Z,94746.66
2022-10-14T13:24:28.901Z,94745.06
2022-10-14T13:26:55.270Z,94743.72
2022-10-14T13:29:59.104Z,94741.56
2022-10-14T13:32:50.623Z,94745.59
2022-10-14T13:35:44.822Z,94747.22
2022-10-14T13:38:23.619Z,94748.81
2022-10-14T13:40:53.464Z,94743.47
2022-10-14T13:43:26.721Z,94740.53
2022-10-14T13:45:58.654Z,94743.47
2022-10-14T13:48:31.209Z,94743.75
2022-10-14T13:51:42.022Z,94746.41
2022-10-14T13:54:20.416Z,94748.56
2022-10-14T14:00:19.499Z,94749.34
2022-10-14T14:02:34.946Z,94750.69
2022-10-14T14:05:01.976Z,94740.53
2022-10-14T14:08:14.199Z,94737.03
2022-10-14T14:10:24.868Z,94737.31
2022-10-14T14:12:51.920Z,94731.72
2022-10-14T14:15:24.124Z,94734.94
2022-10-14T14:17:50.688Z,94726.13
2022-10-14T14:20:27.846Z,94727.97
2022-10-14T14:22:54.371Z,94731.44
2022-10-14T14:25:35.655Z,94725.03
2022-10-14T14:28:06.000Z,94719.97
2022-10-14T14:30:37.760Z,94710.91
2022-10-14T14:33:09.873Z,94705.56
2022-10-14T14:35:37.304Z,94703.16
2022-10-14T14:38:04.141Z,94705.53
2022-10-14T14:40:31.473Z,94700.72
2022-10-14T14:43:00.027Z,94687.38
2022-10-14T14:45:30.490Z,94698.06
2022-10-14T14:47:59.018Z,94707.16
2022-10-14T14:50:33.577Z,94705.00
2022-10-14T14:53:06.887Z,94705.81
2022-10-14T14:55:54.581Z,94710.09
2022-10-14T14:58:52.837Z,94705.28
2022-10-14T15:01:25.368Z,94694.34
2022-10-14T15:04:11.894Z,94707.97
2022-10-14T15:06:51.926Z,94701.81
2022-10-14T15:09:38.469Z,94695.13
2022-10-14T15:12:12.992Z,94708.50
2022-10-14T15:14:52.927Z,94719.16
2022-10-14T15:17:27.089Z,94711.16
2022-10-14T15:19:54.515Z,94716.25
2022-10-14T15:22:27.004Z,94713.28
2022-10-14T15:25:21.182Z,94720.22
2022-10-14T15:27:50.865Z,94731.19
2022-10-14T15:30:28.220Z,94736.25
2022-10-14T15:33:00.843Z,94730.63
2022-10-14T15:35:28.206Z,94724.53
2022-10-14T15:37:54.794Z,94729.03
2022-10-14T15:40:26.808Z,94729.84
2022-10-14T15:42:53.555Z,94738.41
2022-10-14T15:45:20.533Z,94727.44
2022-10-14T15:47:53.493Z,94718.34
2022-10-14T15:50:23.204Z,94709.31
2022-10-14T15:52:53.312Z,94716.50
2022-10-14T15:55:29.933Z,94719.97
2022-10-14T15:57:57.203Z,94714.34
2022-10-14T16:00:24.908Z,94718.09
2022-10-14T16:02:58.538Z,94721.81
2022-10-14T16:05:26.917Z,94715.16
2022-10-14T16:07:53.463Z,94713.28
2022-10-14T16:10:21.871Z,94697.28
2022-10-14T16:12:49.138Z,94701.28
2022-10-14T16:15:38.779Z,94703.66
2022-10-14T16:18:05.461Z,94702.59
2022-10-14T16:20:31.907Z,94702.59
2022-10-14T16:22:58.654Z,94704.19
2022-10-14T16:25:39.383Z,94710.88
2022-10-14T16:28:09.972Z,94709.00
2022-10-14T16:30:40.439Z,94708.47
2022-10-14T16:33:07.840Z,94709.28
2022-10-14T16:35:34.310Z,94709.81
2022-10-14T16:38:00.797Z,94709.28
2022-10-14T16:40:27.268Z,94713.56
2022-10-14T16:42:53.909Z,94702.34
2022-10-14T16:45:20.391Z,94699.94
2022-10-14T16:47:46.963Z,94694.34
2022-10-14T16:50:13.579Z,94699.41
2022-10-14T16:53:00.907Z,94696.22
2022-10-14T16:55:30.650Z,94690.59
2022-10-14T16:57:57.120Z,94703.94
2022-10-14T17:00:23.636Z,94703.41
2022-10-14T17:02:50.192Z,94705.81
2022-10-14T17:05:17.244Z,94709.28
2022-10-14T17:07:43.702Z,94712.22
2022-10-14T17:10:10.840Z,94703.94
2022-10-14T17:12:46.682Z,94722.09
2022-10-14T17:15:15.273Z,94711.94
2022-10-14T17:17:41.923Z,94703.69
2022-10-14T17:20:13.700Z,94713.28
2022-10-14T17:22:40.799Z,94714.63
2022-10-14T17:25:08.267Z,94705.00
2022-10-14T17:27:34.738Z,94706.03
2022-10-14T17:30:01.201Z,94700.22
2022-10-14T17:32:28.213Z,94701.56
2022-10-14T17:34:54.860Z,94707.94
2022-10-14T17:37:21.647Z,94705.00
2022-10-14T17:39:48.169Z,94710.38
2022-10-14T17:42:15.998Z,94714.09
2022-10-14T17:44:43.766Z,94705.41
2022-10-14T17:47:10.769Z,94701.56
2022-10-14T17:49:37.414Z,94713.03
2022-10-14T17:52:06.144Z,94708.22
2022-10-14T17:54:32.553Z,94698.06
2022-10-14T17:56:59.159Z,94694.09
2022-10-14T17:59:25.609Z,94683.94
2022-10-14T18:02:07.558Z,94693.00
2022-10-14T18:04:34.141Z,94689.53
2022-10-14T18:07:00.775Z,94688.94
2022-10-14T18:09:27.323Z,94685.28
2022-10-14T18:12:08.252Z,94681.53
2022-10-14T18:14:35.550Z,94680.22
2022-10-14T18:17:02.030Z,94677.25
2022-10-14T18:19:28.464Z,94685.25
2022-10-14T18:21:54.930Z,94684.47
2022-10-14T18:24:21.431Z,94678.88
2022-10-14T18:26:50.294Z,94685.00
2022-10-14T18:29:16.824Z,94681.53
2022-10-14T18:31:43.481Z,94684.47
2022-10-14T18:34:11.223Z,94679.66
2022-10-14T18:36:38.533Z,94684.47
2022-10-14T18:39:07.751Z,94679.69
2022-10-14T18:41:36.791Z,94675.66
2022-10-14T18:44:04.124Z,94678.06
2022-10-14T18:46:33.900Z,94679.16
2022-10-14T18:49:01.248Z,94669.81
2022-10-14T18:51:30.738Z,94678.59
2022-10-14T18:53:58.473Z,94670.88
2022-10-14T18:56:27.999Z,94668.22
2022-10-14T18:58:59.915Z,94652.75
2022-10-14T19:01:27.697Z,94662.06
2022-10-14T19:03:55.464Z,94656.22
2022-10-14T19:06:23.276Z,94666.88
2022-10-14T19:08:50.709Z,94657.28
2022-10-14T19:11:20.241Z,94664.72
2022-10-14T19:13:51.893Z,94658.34
2022-10-14T19:16:28.400Z,94660.19
2022-10-14T19:18:57.047Z,94664.72
2022-10-14T19:21:26.688Z,94649.53
2022-10-14T19:23:53.205Z,94649.78
2022-10-14T19:26:22.237Z,94649.78
2022-10-14T19:28:49.880Z,94640.72
2022-10-14T19:31:19.476Z,94638.31
2022-10-14T19:33:46.192Z,94643.66
2022-10-14T19:36:15.494Z,94637.25
2022-10-14T19:38:58.636Z,94630.84
2022-10-14T19:41:30.936Z,94635.13
2022-10-14T19:43:58.884Z,94620.19
2022-10-14T19:46:27.657Z,94631.66
2022-10-14T19:48:59.787Z,94629.25
2022-10-14T19:51:27.159Z,94630.31
2022-10-14T19:53:58.242Z,94620.97
2022-10-14T19:56:25.430Z,94620.72
2022-10-14T19:58:54.216Z,94622.06
2022-10-14T20:01:23.724Z,94626.06
2022-10-14T20:03:50.540Z,94623.13
2022-10-14T20:06:17.179Z,94624.97
2022-10-14T20:08:45.266Z,94626.84
2022-10-14T20:11:17.851Z,94628.97
2022-10-14T20:13:45.272Z,94619.66
2022-10-14T20:16:12.564Z,94623.66
2022-10-14T20:18:39.274Z,94623.94
2022-10-14T20:21:07.227Z,94625.00
2022-10-14T20:23:40.654Z,94627.13
2022-10-14T20:26:16.515Z,94624.16
2022-10-14T20:28:43.256Z,94627.91
2022-10-14T20:31:12.772Z,94624.66
2022-10-14T20:33:39.148Z,94620.47
2022-10-14T20:36:16.815Z,94619.13
2022-10-14T20:38:43.833Z,94618.81
2022-10-14T20:41:15.067Z,94617.47
2022-10-14T20:43:42.881Z,94612.94
2022-10-14T20:46:09.820Z,94618.53
2022-10-14T20:48:39.212Z,94607.06
2022-10-14T20:51:07.421Z,94606.28
2022-10-14T20:53:34.106Z,94596.41
2022-10-14T20:56:05.961Z,94586.25
2022-10-14T20:58:33.020Z,94573.22
2022-10-14T21:01:14.555Z,94575.72
2022-10-14T21:03:42.670Z,94582.06
2022-10-14T21:06:12.883Z,94579.34
2022-10-14T21:08:39.834Z,94585.75
2022-10-14T21:11:13.810Z,94589.47
2022-10-14T21:13:51.040Z,94590.53
2022-10-14T21:16:32.350Z,94597.47
2022-10-14T21:19:07.841Z,94585.47
2022-10-14T21:21:40.630Z,94580.41
2022-10-14T21:24:09.049Z,94583.88
2022-10-14T21:26:35.839Z,94587.34
2022-10-14T21:29:02.778Z,94592.13
2022-10-14T21:31:29.866Z,94593.19
2022-10-14T21:34:02.568Z,94590.19
2022-10-14T21:36:32.026Z,94590.00
2022-10-14T21:39:00.710Z,94591.06
2022-10-14T21:41:27.907Z,94577.19
2022-10-14T21:43:56.365Z,94582.28
2022-10-14T21:46:23.149Z,94582.28
2022-10-14T21:48:54.931Z,94583.34
2022-10-14T21:51:21.349Z,94582.28
2022-10-14T21:53:47.739Z,94572.13
2022-10-14T21:56:15.293Z,94566.53
2022-10-14T21:58:42.747Z,94574.13
2022-10-14T22:01:23.111Z,94566.25
2022-10-14T22:04:05.272Z,94552.22
2022-10-14T22:06:33.665Z,94549.47
2022-10-14T22:09:01.812Z,94548.41
2022-10-14T22:11:34.116Z,94549.47
2022-10-14T22:14:02.810Z,94534.28
2022-10-14T22:16:30.038Z,94535.06
2022-10-14T22:18:59.273Z,94531.09
2022-10-14T22:21:27.818Z,94527.63
2022-10-14T22:23:54.311Z,94529.47
2022-10-14T22:26:23.697Z,94526.81
2022-10-14T22:28:56.475Z,94512.97
2022-10-14T22:31:23.012Z,94507.59
2022-10-14T22:33:49.551Z,94510.56
2022-10-14T22:36:23.918Z,94507.88
2022-10-14T22:38:54.167Z,94509.22
2022-10-14T22:41:22.261Z,94492.69
2022-10-14T22:43:51.788Z,94493.47
2022-10-14T22:46:21.671Z,94495.00
2022-10-14T22:48:49.206Z,94492.97
2022-10-14T22:51:18.092Z,94493.34
2022-10-14T22:53:46.045Z,94485.75
2022-10-14T22:56:15.359Z,94480.97
2022-10-14T22:58:42.259Z,94477.25
2022-10-14T23:01:14.259Z,94476.97
2022-10-14T23:03:41.440Z,94468.72
2022-10-14T23:06:11.030Z,94476.16
2022-10-14T23:08:38.382Z,94466.84
2022-10-14T23:11:05.669Z,94474.84
2022-10-14T23:13:32.928Z,94460.44
2022-10-14T23:16:01.880Z,94464.34
2022-10-14T23:18:30.029Z,94467.91
2022-10-14T23:20:56.616Z,94469.53
2022-10-14T23:23:23.254Z,94456.19
2022-10-14T23:25:49.725Z,94456.47
2022-10-14T23:28:16.242Z,94452.41
2022-10-14T23:30:42.658Z,94443.66
2022-10-14T23:33:10.892Z,94445.28
2022-10-14T23:35:38.581Z,94432.47
2022-10-14T23:38:05.101Z,94444.19
2022-10-14T23:40:31.558Z,94446.34
2022-10-14T23:42:58.309Z,94439.66
2022-10-14T23:45:24.820Z,94430.63
2022-10-14T23:47:51.230Z,94451.41
2022-10-14T23:50:17.875Z,94439.66
2022-10-14T23:52:45.850Z,94436.19
2022-10-14T23:55:13.124Z,94434.19
2022-10-14T23:57:40.261Z,94454.06
